Time;durP1;ratioP1;P1;durP2;ratioP2;P2;SDS_P1;SDS_P2;PMS_P1;PMS_P2;Temp;Humidity;BMP_temperature;BMP_pressure;BME280_temperature;BME280_humidity;BME280_pressure;Samples;Min_cycle;Max_cycle;Signal;HPM_P1;HPM_P2
2024/01/13 00:00:14;;;;;;;23.75;19.52;;;3.40;99.90;;;;;;5031468;28;20592;-87
2024/01/13 00:02:40;;;;;;;21.45;19.17;;;3.50;99.90;;;;;;5047083;28;20569;-85
2024/01/13 00:05:06;;;;;;;22.85;20.45;;;3.50;99.90;;;;;;5022443;28;20094;-86
2024/01/13 00:07:31;;;;;;;23.00;19.33;;;3.50;99.90;;;;;;5050107;28;20389;-86
2024/01/13 00:09:57;;;;;;;21.45;19.25;;;3.50;99.90;;;;;;5036616;28;20036;-86
2024/01/13 00:12:23;;;;;;;21.65;19.77;;;3.50;99.90;;;;;;5068092;28;20111;-86
2024/01/13 00:14:49;;;;;;;21.58;19.30;;;3.50;99.90;;;;;;5032043;28;20044;-86
2024/01/13 00:17:14;;;;;;;23.00;20.50;;;3.50;99.90;;;;;;5051995;28;20028;-87
2024/01/13 00:19:40;;;;;;;21.67;19.90;;;3.50;99.90;;;;;;5047006;28;20127;-86
2024/01/13 00:22:05;;;;;;;24.17;21.83;;;3.50;99.90;;;;;;5035351;28;20312;-87
2024/01/13 00:24:31;;;;;;;24.38;21.80;;;3.50;99.90;;;;;;5042674;28;20051;-87
2024/01/13 00:26:57;;;;;;;26.60;24.10;;;3.60;99.90;;;;;;5022693;28;20426;-86
2024/01/13 00:29:23;;;;;;;26.08;23.45;;;3.60;99.90;;;;;;5027781;28;20051;-86
2024/01/13 00:31:48;;;;;;;24.52;22.30;;;3.60;99.90;;;;;;5029046;28;20040;-86
2024/01/13 00:34:14;;;;;;;23.02;20.92;;;3.60;99.90;;;;;;5071275;28;20123;-86
2024/01/13 00:36:40;;;;;;;23.27;21.00;;;3.60;99.90;;;;;;5048762;28;20044;-86
2024/01/13 00:39:05;;;;;;;24.40;19.48;;;3.50;99.90;;;;;;5048247;28;20060;-86
2024/01/13 00:41:31;;;;;;;22.13;19.83;;;3.40;99.90;;;;;;5053005;28;20036;-86
2024/01/13 00:43:57;;;;;;;22.40;18.50;;;3.30;99.90;;;;;;5047652;28;20036;-86
2024/01/13 00:46:23;;;;;;;20.55;18.35;;;3.30;99.90;;;;;;5050536;28;20040;-86
2024/01/13 00:48:48;;;;;;;19.33;17.63;;;3.30;99.90;;;;;;5068304;28;20492;-86
2024/01/13 00:51:14;;;;;;;21.67;19.70;;;3.30;99.90;;;;;;5051314;28;20036;-86
2024/01/13 00:53:41;;;;;;;22.02;19.55;;;3.30;99.90;;;;;;5043541;28;20498;-86
2024/01/13 00:56:06;;;;;;;22.27;19.98;;;3.40;99.90;;;;;;5035133;28;20405;-86
2024/01/13 00:58:32;;;;;;;24.23;20.25;;;3.40;99.90;;;;;;5056056;28;20037;-86
2024/01/13 01:00:59;;;;;;;27.20;21.92;;;3.40;99.90;;;;;;5051218;28;20098;-87
2024/01/13 01:03:26;;;;;;;25.27;23.05;;;3.40;99.90;;;;;;5042360;28;20048;-86
2024/01/13 01:05:53;;;;;;;24.45;22.33;;;3.50;99.90;;;;;;5042946;28;20114;-87
2024/01/13 01:08:19;;;;;;;26.95;23.00;;;3.50;99.90;;;;;;5062884;28;20036;-87
2024/01/13 01:10:45;;;;;;;24.92;22.38;;;3.50;99.90;;;;;;5047798;28;20568;-87
2024/01/13 01:13:10;;;;;;;24.85;22.33;;;3.50;99.90;;;;;;5049416;28;20036;-87
2024/01/13 01:15:36;;;;;;;25.55;23.08;;;3.60;99.90;;;;;;5050405;28;20037;-87
2024/01/13 01:18:02;;;;;;;27.02;24.85;;;3.60;99.90;;;;;;5037597;28;20051;-87
2024/01/13 01:20:27;;;;;;;24.65;22.65;;;3.60;99.90;;;;;;5050329;28;20033;-86
2024/01/13 01:22:53;;;;;;;25.77;23.00;;;3.60;99.90;;;;;;5033391;28;20028;-86
2024/01/13 01:25:18;;;;;;;25.13;22.80;;;3.50;99.90;;;;;;5030995;28;20117;-87
2024/01/13 01:27:44;;;;;;;24.77;22.58;;;3.60;99.90;;;;;;5031403;28;20040;-87
2024/01/13 01:30:10;;;;;;;30.58;25.13;;;3.50;99.90;;;;;;5038834;28;20040;-86
2024/01/13 01:32:36;;;;;;;20.92;18.73;;;3.50;99.90;;;;;;5023965;28;20397;-86
2024/01/13 01:35:02;;;;;;;20.73;18.95;;;3.50;99.90;;;;;;5034551;28;20036;-87
2024/01/13 01:37:27;;;;;;;20.73;18.83;;;3.50;99.90;;;;;;5045737;28;20044;-87
2024/01/13 01:39:53;;;;;;;22.30;20.00;;;3.60;99.90;;;;;;5047258;28;20053;-86
2024/01/13 01:42:18;;;;;;;21.55;19.20;;;3.60;99.90;;;;;;5048535;28;20026;-87
2024/01/13 01:44:44;;;;;;;23.55;21.40;;;3.50;99.90;;;;;;5051084;28;20062;-86
2024/01/13 01:47:11;;;;;;;23.52;20.77;;;3.50;99.90;;;;;;5051580;28;20479;-86
2024/01/13 01:49:38;;;;;;;24.98;22.60;;;3.60;99.90;;;;;;5043948;28;20043;-86
2024/01/13 01:52:04;;;;;;;22.02;20.08;;;3.60;99.90;;;;;;5032076;28;20093;-87
2024/01/13 01:54:30;;;;;;;23.25;21.10;;;3.70;99.90;;;;;;5033559;28;20083;-87
2024/01/13 01:56:57;;;;;;;23.58;21.10;;;3.60;99.90;;;;;;5046813;28;20076;-86
2024/01/13 01:59:24;;;;;;;22.42;20.13;;;3.70;99.90;;;;;;5034666;28;20045;-87
2024/01/13 02:01:51;;;;;;;21.73;19.75;;;3.60;99.90;;;;;;5070544;28;20040;-86
2024/01/13 02:04:17;;;;;;;22.60;21.00;;;3.60;99.90;;;;;;5033624;28;20070;-86
2024/01/13 02:06:44;;;;;;;22.35;20.20;;;3.60;99.90;;;;;;5072173;28;20484;-87
2024/01/13 02:09:12;;;;;;;22.25;20.00;;;3.60;99.90;;;;;;5054559;28;20686;-86
2024/01/13 02:11:37;;;;;;;21.20;19.52;;;3.60;99.90;;;;;;5038356;28;20040;-87
2024/01/13 02:14:03;;;;;;;23.02;21.13;;;3.60;99.90;;;;;;5043447;28;20036;-87
2024/01/13 02:16:29;;;;;;;21.83;19.85;;;3.60;99.90;;;;;;5052438;28;20036;-87
2024/01/13 02:18:55;;;;;;;22.20;20.08;;;3.60;99.90;;;;;;5051812;28;20037;-86
2024/01/13 02:21:20;;;;;;;22.63;20.42;;;3.60;99.90;;;;;;5048820;28;20473;-86
2024/01/13 02:23:46;;;;;;;23.60;21.35;;;3.60;99.90;;;;;;5045866;28;20068;-86
2024/01/13 02:26:12;;;;;;;22.13;19.85;;;3.60;99.90;;;;;;5055034;28;20426;-86
2024/01/13 02:28:39;;;;;;;22.52;20.58;;;3.50;99.90;;;;;;5072163;28;20048;-86
2024/01/13 02:31:05;;;;;;;24.05;21.75;;;3.50;99.90;;;;;;5071203;28;20044;-86
2024/01/13 02:33:30;;;;;;;21.77;19.42;;;3.50;99.90;;;;;;5055051;28;20051;-86
2024/01/13 02:35:56;;;;;;;22.63;20.33;;;3.50;99.90;;;;;;5072769;28;20056;-87
2024/01/13 02:38:22;;;;;;;22.90;20.75;;;3.40;99.90;;;;;;5037556;28;20127;-86
2024/01/13 02:40:47;;;;;;;21.52;19.67;;;3.40;99.90;;;;;;5054184;28;20029;-86
2024/01/13 02:43:13;;;;;;;20.58;18.73;;;3.40;99.90;;;;;;5037974;28;20044;-86
2024/01/13 02:45:38;;;;;;;22.92;19.45;;;3.40;99.90;;;;;;5037879;28;20033;-87
2024/01/13 02:48:17;;;;;;;20.55;18.67;;;3.40;99.90;;;;;;5053234;28;20044;-86
2024/01/13 02:50:55;;;;;;;21.55;19.90;;;3.30;99.90;;;;;;5044812;28;20428;-87
2024/01/13 02:53:21;;;;;;;21.58;19.35;;;3.40;99.90;;;;;;5043246;28;20064;-86
2024/01/13 02:55:47;;;;;;;21.80;19.50;;;3.50;99.90;;;;;;5029726;28;20126;-86
2024/01/13 02:58:12;;;;;;;22.45;20.30;;;3.40;99.90;;;;;;5047527;28;20770;-86
2024/01/13 03:00:38;;;;;;;21.17;19.30;;;3.50;99.90;;;;;;5054410;28;20032;-86
2024/01/13 03:03:04;;;;;;;21.30;19.30;;;3.50;99.90;;;;;;5036545;28;20431;-86
2024/01/13 03:05:29;;;;;;;22.10;20.27;;;3.50;99.90;;;;;;5036338;28;20688;-86
2024/01/13 03:07:55;;;;;;;19.83;18.20;;;3.50;99.90;;;;;;5053497;28;20139;-86
2024/01/13 03:10:20;;;;;;;22.10;20.02;;;3.50;99.90;;;;;;5036743;28;20036;-85
2024/01/13 03:12:46;;;;;;;21.95;19.90;;;3.50;99.90;;;;;;5036394;28;20467;-87
2024/01/13 03:15:12;;;;;;;22.17;20.02;;;3.60;99.90;;;;;;5034255;28;20048;-86
2024/01/13 03:17:37;;;;;;;23.30;20.98;;;3.50;99.90;;;;;;5052413;28;20040;-86
2024/01/13 03:20:03;;;;;;;22.55;20.35;;;3.50;99.90;;;;;;5031858;28;20187;-86
2024/01/13 03:22:29;;;;;;;22.42;20.55;;;3.60;99.90;;;;;;5036043;28;20051;-86
2024/01/13 03:24:56;;;;;;;23.27;21.25;;;3.60;99.90;;;;;;5036199;28;20447;-86
2024/01/13 03:27:21;;;;;;;20.85;18.98;;;3.50;99.90;;;;;;5029213;28;20412;-86
2024/01/13 03:29:47;;;;;;;21.10;19.08;;;3.50;99.90;;;;;;5053171;28;20048;-86
2024/01/13 03:32:13;;;;;;;21.23;19.48;;;3.60;99.90;;;;;;5050350;28;20048;-86
2024/01/13 03:34:38;;;;;;;22.30;20.40;;;3.60;99.90;;;;;;5043915;28;20042;-87
2024/01/13 03:37:04;;;;;;;21.80;20.23;;;3.60;99.90;;;;;;5048816;28;20044;-86
2024/01/13 03:39:30;;;;;;;23.42;21.15;;;3.70;99.90;;;;;;5035218;28;20493;-86
2024/01/13 03:41:55;;;;;;;22.77;20.48;;;3.60;99.90;;;;;;5053108;28;20040;-86
2024/01/13 03:44:21;;;;;;;21.02;19.38;;;3.60;99.90;;;;;;5027131;28;20033;-86
2024/01/13 03:46:47;;;;;;;21.83;19.75;;;3.60;99.90;;;;;;5036545;28;20040;-86
2024/01/13 03:49:12;;;;;;;22.77;20.60;;;3.60;99.90;;;;;;5053272;28;20068;-86
2024/01/13 03:51:38;;;;;;;22.30;20.17;;;3.60;99.90;;;;;;5032526;28;20044;-87
2024/01/13 03:54:03;;;;;;;22.02;20.02;;;3.60;99.90;;;;;;5036682;28;20501;-86
2024/01/13 03:56:30;;;;;;;20.40;18.48;;;3.60;99.90;;;;;;5047818;28;20072;-86
2024/01/13 03:58:55;;;;;;;22.10;19.65;;;3.60;99.90;;;;;;5053238;28;20079;-86
2024/01/13 04:01:21;;;;;;;21.55;19.38;;;3.60;99.90;;;;;;5035938;28;20997;-86
2024/01/13 04:03:47;;;;;;;22.05;19.95;;;3.60;99.90;;;;;;5050294;28;20048;-86
2024/01/13 04:06:12;;;;;;;20.42;18.83;;;3.60;99.90;;;;;;5024382;28;20559;-86
2024/01/13 04:08:38;;;;;;;20.63;18.50;;;3.60;99.90;;;;;;5021537;28;20041;-87
2024/01/13 04:11:08;;;;;;;20.58;18.85;;;3.60;99.90;;;;;;5042153;28;20040;-87
2024/01/13 04:13:35;;;;;;;21.60;19.45;;;3.60;99.90;;;;;;5041792;28;20048;-86
2024/01/13 04:16:01;;;;;;;21.48;19.52;;;3.60;99.90;;;;;;5033290;28;20561;-86
2024/01/13 04:18:26;;;;;;;21.70;19.77;;;3.60;99.90;;;;;;5056720;28;20087;-86
2024/01/13 04:20:52;;;;;;;21.92;19.98;;;3.60;99.90;;;;;;5046153;28;20147;-87
2024/01/13 04:23:18;;;;;;;22.15;19.92;;;3.60;99.90;;;;;;5025105;28;20108;-86
2024/01/13 04:25:43;;;;;;;22.45;20.45;;;3.60;99.90;;;;;;5032908;28;20045;-86
2024/01/13 04:28:09;;;;;;;22.30;20.15;;;3.60;99.90;;;;;;5049540;28;20040;-86
2024/01/13 04:30:38;;;;;;;21.80;19.83;;;3.60;99.90;;;;;;5023957;28;20079;-87
2024/01/13 04:33:03;;;;;;;21.30;19.52;;;3.60;99.90;;;;;;5033544;28;20066;-87
2024/01/13 04:35:29;;;;;;;25.15;23.23;;;3.60;99.90;;;;;;5047390;28;20052;-87
2024/01/13 04:37:55;;;;;;;22.20;20.30;;;3.70;99.90;;;;;;5050669;28;20052;-86
2024/01/13 04:40:21;;;;;;;22.48;20.77;;;3.70;99.90;;;;;;5033768;28;20066;-86
2024/01/13 04:42:46;;;;;;;24.77;22.15;;;3.70;99.90;;;;;;5038877;28;20033;-86
2024/01/13 04:45:12;;;;;;;23.23;20.90;;;3.70;99.90;;;;;;5045617;28;20123;-87
2024/01/13 04:47:38;;;;;;;21.35;19.52;;;3.70;99.90;;;;;;5033740;28;20062;-87
2024/01/13 04:50:04;;;;;;;23.58;21.27;;;3.80;99.90;;;;;;5049591;28;20036;-87
2024/01/13 04:52:29;;;;;;;23.30;20.55;;;3.80;99.90;;;;;;5034309;28;20047;-86
2024/01/13 04:54:55;;;;;;;22.90;20.95;;;3.80;99.90;;;;;;5048993;28;20666;-86
2024/01/13 04:57:21;;;;;;;22.65;20.77;;;3.70;99.90;;;;;;5050363;28;20559;-86
2024/01/13 04:59:47;;;;;;;22.60;20.63;;;3.70;99.90;;;;;;5033117;28;20043;-87
2024/01/13 05:02:13;;;;;;;21.90;20.05;;;3.70;99.90;;;;;;5047011;28;20075;-86
2024/01/13 05:04:39;;;;;;;22.55;20.33;;;3.70;99.90;;;;;;5065475;28;20128;-86
2024/01/13 05:07:05;;;;;;;21.92;20.23;;;3.70;99.90;;;;;;5046528;28;20040;-86
2024/01/13 05:09:30;;;;;;;21.33;19.50;;;3.70;99.90;;;;;;5051761;28;20105;-86
2024/01/13 05:11:56;;;;;;;20.65;18.83;;;3.70;99.90;;;;;;5033505;28;20131;-86
2024/01/13 05:14:22;;;;;;;23.20;21.70;;;3.70;99.90;;;;;;5029013;28;20051;-87
2024/01/13 05:16:48;;;;;;;20.50;18.75;;;3.60;99.90;;;;;;5048441;28;20182;-86
2024/01/13 05:19:15;;;;;;;21.65;20.20;;;3.70;99.90;;;;;;5051437;28;20028;-86
2024/01/13 05:21:41;;;;;;;24.55;22.60;;;3.60;99.90;;;;;;5048303;28;20090;-86
2024/01/13 05:24:06;;;;;;;22.15;20.25;;;3.70;99.90;;;;;;5048610;28;20112;-87
2024/01/13 05:26:32;;;;;;;20.08;18.33;;;3.60;99.90;;;;;;5045321;28;20124;-86
2024/01/13 05:28:58;;;;;;;20.58;18.92;;;3.70;99.90;;;;;;5048197;28;20052;-86
2024/01/13 05:31:23;;;;;;;21.20;19.48;;;3.70;99.90;;;;;;5049707;28;20124;-86
2024/01/13 05:33:49;;;;;;;21.00;19.40;;;3.60;99.90;;;;;;5035344;28;20468;-86
2024/01/13 05:36:16;;;;;;;20.58;18.98;;;3.60;99.90;;;;;;5030490;28;20591;-86
2024/01/13 05:38:42;;;;;;;21.23;19.52;;;3.60;99.90;;;;;;5038898;28;20124;-85
2024/01/13 05:41:09;;;;;;;20.38;18.80;;;3.60;99.90;;;;;;5049491;28;20117;-87
2024/01/13 05:43:35;;;;;;;20.15;18.60;;;3.60;99.90;;;;;;5065054;28;20036;-86
2024/01/13 05:46:01;;;;;;;19.67;18.00;;;3.60;99.90;;;;;;5032973;28;20044;-86
2024/01/13 05:48:26;;;;;;;20.52;18.95;;;3.50;99.90;;;;;;5054097;28;20040;-85
2024/01/13 05:50:52;;;;;;;19.25;17.92;;;3.60;99.90;;;;;;5032928;28;20048;-86
2024/01/13 05:53:18;;;;;;;19.48;18.13;;;3.50;99.90;;;;;;5051419;28;20032;-86
2024/01/13 05:55:44;;;;;;;19.83;18.52;;;3.60;99.90;;;;;;5029486;28;20052;-87
2024/01/13 05:58:09;;;;;;;19.27;17.88;;;3.60;99.90;;;;;;5037567;28;20036;-87
2024/01/13 06:00:35;;;;;;;18.75;17.55;;;3.70;99.90;;;;;;5054655;28;20068;-86
2024/01/13 06:03:01;;;;;;;19.85;18.25;;;3.70;99.90;;;;;;5052403;28;20024;-87
2024/01/13 06:05:26;;;;;;;19.83;18.23;;;3.70;99.90;;;;;;5054195;28;20044;-86
2024/01/13 06:07:52;;;;;;;19.02;17.50;;;3.70;99.90;;;;;;5034203;28;20045;-86
2024/01/13 06:10:18;;;;;;;18.25;16.60;;;3.70;99.90;;;;;;5038801;28;20047;-86
2024/01/13 06:12:46;;;;;;;18.90;17.40;;;3.60;99.90;;;;;;5050651;28;20036;-87
2024/01/13 06:15:12;;;;;;;20.42;18.88;;;3.60;99.90;;;;;;5037389;28;20111;-87
2024/01/13 06:17:38;;;;;;;18.42;17.02;;;3.70;99.90;;;;;;5034738;28;20049;-86
2024/01/13 06:20:04;;;;;;;19.48;17.55;;;3.60;99.90;;;;;;5053281;28;20047;-87
2024/01/13 06:22:29;;;;;;;18.77;17.58;;;3.60;99.90;;;;;;5072428;28;20492;-87
2024/01/13 06:24:55;;;;;;;19.67;18.27;;;3.70;99.90;;;;;;5032838;28;20036;-86
2024/01/13 06:27:21;;;;;;;19.88;18.42;;;3.70;99.90;;;;;;5070071;28;20110;-86
2024/01/13 06:29:46;;;;;;;18.95;17.75;;;3.70;99.90;;;;;;5036819;28;20131;-87
2024/01/13 06:32:12;;;;;;;18.13;17.02;;;3.60;99.90;;;;;;5037987;28;20036;-87
2024/01/13 06:34:38;;;;;;;19.80;18.60;;;3.70;99.90;;;;;;5032431;28;20037;-86
2024/01/13 06:37:04;;;;;;;20.08;18.88;;;3.70;99.90;;;;;;5051802;28;20040;-87
2024/01/13 06:39:30;;;;;;;19.48;18.17;;;3.80;99.90;;;;;;5037258;28;20060;-86
2024/01/13 06:41:56;;;;;;;20.20;19.00;;;3.70;99.90;;;;;;5072745;28;20036;-86
2024/01/13 06:44:21;;;;;;;21.08;19.70;;;3.70;99.90;;;;;;5036497;28;20059;-86
2024/01/13 06:46:47;;;;;;;19.33;17.85;;;3.70;99.90;;;;;;5051303;28;20040;-86
2024/01/13 06:49:13;;;;;;;18.67;17.20;;;3.60;99.90;;;;;;5053390;28;20047;-86
2024/01/13 06:51:39;;;;;;;21.50;20.10;;;3.70;99.90;;;;;;5033144;28;20044;-86
2024/01/13 06:54:05;;;;;;;20.13;18.55;;;3.70;99.90;;;;;;5030458;28;20094;-86
2024/01/13 06:56:31;;;;;;;19.17;17.83;;;3.70;99.90;;;;;;5052424;28;20114;-86
2024/01/13 06:58:56;;;;;;;19.35;17.88;;;3.70;99.90;;;;;;5035109;28;20033;-87
2024/01/13 07:01:22;;;;;;;19.98;18.75;;;3.60;99.90;;;;;;5027314;28;20036;-86
2024/01/13 07:03:47;;;;;;;19.05;17.83;;;3.70;99.90;;;;;;5037573;28;20037;-86
2024/01/13 07:06:13;;;;;;;19.48;17.83;;;3.70;99.90;;;;;;5047674;28;20059;-86
2024/01/13 07:08:42;;;;;;;20.23;18.83;;;3.70;99.90;;;;;;5052065;28;20617;-87
2024/01/13 07:11:15;;;;;;;21.73;20.15;;;3.70;99.90;;;;;;5033324;28;20087;-86
2024/01/13 07:13:42;;;;;;;21.58;19.95;;;3.70;99.90;;;;;;5049955;28;20098;-87
2024/01/13 07:16:08;;;;;;;27.10;25.30;;;3.70;99.90;;;;;;5034276;28;20605;-86
2024/01/13 07:18:34;;;;;;;20.35;18.95;;;3.70;99.90;;;;;;5037684;28;20124;-86
2024/01/13 07:21:00;;;;;;;21.85;19.92;;;3.70;99.90;;;;;;5041504;28;20123;-86
2024/01/13 07:23:25;;;;;;;20.10;18.42;;;3.70;99.90;;;;;;5023509;28;20070;-86
2024/01/13 07:25:51;;;;;;;21.77;20.15;;;3.80;99.90;;;;;;5048646;28;20033;-87
2024/01/13 07:28:17;;;;;;;20.80;19.15;;;3.70;99.90;;;;;;5045148;28;20044;-87
2024/01/13 07:30:42;;;;;;;21.27;19.48;;;3.70;99.90;;;;;;5049772;28;20477;-87
2024/01/13 07:33:08;;;;;;;22.67;20.98;;;3.70;99.90;;;;;;5050158;28;20405;-86
2024/01/13 07:35:35;;;;;;;22.52;20.60;;;3.80;99.90;;;;;;5052407;28;20450;-86
2024/01/13 07:38:01;;;;;;;23.05;21.08;;;3.70;99.90;;;;;;5065036;28;20061;-87
2024/01/13 07:40:27;;;;;;;20.38;18.80;;;3.70;99.90;;;;;;5030317;28;20055;-87
2024/01/13 07:42:52;;;;;;;23.77;21.80;;;3.70;99.90;;;;;;5068426;28;20052;-86
2024/01/13 07:45:18;;;;;;;22.83;20.92;;;3.70;99.90;;;;;;5049245;28;20075;-87
2024/01/13 07:47:44;;;;;;;25.50;23.48;;;3.80;99.90;;;;;;5050401;28;20040;-86
2024/01/13 07:50:09;;;;;;;26.20;23.70;;;3.80;99.90;;;;;;5043368;28;20066;-86
2024/01/13 07:52:35;;;;;;;25.25;23.00;;;3.90;99.90;;;;;;5070625;28;20036;-87
2024/01/13 07:55:01;;;;;;;25.38;22.77;;;3.90;99.90;;;;;;5031534;28;20064;-87
2024/01/13 07:57:29;;;;;;;26.45;23.75;;;3.80;99.90;;;;;;5025676;28;20125;-86
2024/01/13 07:59:55;;;;;;;29.45;24.60;;;3.80;99.90;;;;;;5050801;28;20041;-86
2024/01/13 08:02:21;;;;;;;29.20;25.52;;;3.90;99.90;;;;;;5034609;28;20041;-86
2024/01/13 08:04:46;;;;;;;31.92;26.25;;;3.90;99.90;;;;;;5030138;28;20066;-86
2024/01/13 08:07:12;;;;;;;39.63;30.75;;;3.90;99.90;;;;;;5031741;28;20032;-87
2024/01/13 08:09:38;;;;;;;39.33;28.95;;;3.80;99.90;;;;;;5035489;28;20451;-86
2024/01/13 08:12:04;;;;;;;45.33;31.52;;;3.90;99.90;;;;;;5051297;28;20036;-87
2024/01/13 08:14:30;;;;;;;45.80;32.58;;;3.90;99.90;;;;;;5018241;28;20059;-86
2024/01/13 08:16:55;;;;;;;48.63;30.63;;;3.90;99.90;;;;;;5027305;28;20044;-86
2024/01/13 08:19:22;;;;;;;50.58;34.00;;;3.80;99.90;;;;;;5068742;28;20043;-85
2024/01/13 08:21:50;;;;;;;45.50;30.90;;;3.90;99.90;;;;;;5028327;28;20037;-86
2024/01/13 08:24:15;;;;;;;52.60;32.70;;;3.90;99.90;;;;;;5042112;28;20048;-86
2024/01/13 08:26:41;;;;;;;46.97;32.58;;;3.80;99.90;;;;;;5047680;28;20044;-86
2024/01/13 08:29:07;;;;;;;53.53;33.95;;;3.90;99.90;;;;;;5069158;28;20048;-86
2024/01/13 08:31:33;;;;;;;54.83;36.58;;;3.80;99.90;;;;;;5046110;28;20040;-86
2024/01/13 08:33:58;;;;;;;51.22;35.72;;;3.90;99.90;;;;;;5027567;28;20075;-86
2024/01/13 08:36:24;;;;;;;56.13;36.83;;;3.90;99.90;;;;;;5033656;28;20098;-86
2024/01/13 08:38:50;;;;;;;65.47;37.70;;;3.90;99.90;;;;;;5050978;28;20076;-87
2024/01/13 08:41:16;;;;;;;62.10;37.72;;;3.90;99.90;;;;;;5068441;28;20040;-86
2024/01/13 08:43:42;;;;;;;58.28;38.05;;;3.90;99.90;;;;;;5046938;28;20139;-86
2024/01/13 08:46:10;;;;;;;64.18;40.35;;;3.90;99.90;;;;;;5061197;28;20063;-86
2024/01/13 08:48:36;;;;;;;68.35;41.30;;;3.90;99.90;;;;;;5033896;28;20036;-85
2024/01/13 08:51:01;;;;;;;72.05;41.10;;;4.00;99.90;;;;;;5046642;28;20382;-87
2024/01/13 08:53:27;;;;;;;58.30;40.70;;;4.00;99.90;;;;;;5050861;28;20044;-86
2024/01/13 08:55:53;;;;;;;65.10;40.15;;;4.00;99.90;;;;;;5047172;28;20036;-86
2024/01/13 08:58:19;;;;;;;69.45;41.65;;;4.00;99.90;;;;;;5022266;28;20047;-87
2024/01/13 09:00:45;;;;;;;69.68;43.65;;;4.00;99.90;;;;;;5039240;28;20048;-85
2024/01/13 09:03:11;;;;;;;65.50;37.97;;;4.00;99.90;;;;;;5025187;28;20033;-86
2024/01/13 09:05:36;;;;;;;72.05;43.65;;;4.10;99.90;;;;;;5032866;28;20041;-86
2024/01/13 09:08:02;;;;;;;75.95;42.33;;;4.10;99.90;;;;;;5030771;28;20025;-86
2024/01/13 09:10:28;;;;;;;76.22;46.17;;;4.10;99.90;;;;;;5028911;28;20503;-86
2024/01/13 09:12:54;;;;;;;76.20;43.95;;;4.10;99.90;;;;;;5051270;28;20033;-86
2024/01/13 09:15:20;;;;;;;74.13;43.00;;;4.10;99.90;;;;;;5018873;28;20040;-84
2024/01/13 09:17:46;;;;;;;70.65;43.97;;;4.20;99.90;;;;;;5031412;28;20039;-85
2024/01/13 09:20:11;;;;;;;80.95;45.97;;;4.10;99.90;;;;;;5060797;28;20511;-86
2024/01/13 09:22:37;;;;;;;74.68;45.03;;;4.10;99.90;;;;;;5048556;28;20475;-86
2024/01/13 09:25:03;;;;;;;74.90;44.30;;;4.10;99.90;;;;;;5049003;28;20068;-86
2024/01/13 09:27:29;;;;;;;63.22;38.15;;;4.10;99.90;;;;;;5044309;28;20485;-86
2024/01/13 09:29:55;;;;;;;67.93;42.92;;;4.10;99.90;;;;;;5043278;28;20043;-86
2024/01/13 09:32:20;;;;;;;70.45;42.67;;;4.20;99.90;;;;;;5030508;28;20040;-85
2024/01/13 09:34:46;;;;;;;60.72;37.55;;;4.10;99.90;;;;;;5052622;28;20064;-86
2024/01/13 09:37:14;;;;;;;68.88;42.47;;;4.10;99.90;;;;;;5050831;28;20045;-86
2024/01/13 09:39:39;;;;;;;74.10;45.08;;;4.20;99.90;;;;;;5052699;28;20057;-86
2024/01/13 09:42:05;;;;;;;75.55;44.78;;;4.10;99.90;;;;;;5072366;28;20042;-86
2024/01/13 09:44:32;;;;;;;68.85;43.25;;;4.20;99.90;;;;;;5052286;28;20033;-86
2024/01/13 09:47:00;;;;;;;72.75;43.85;;;4.20;99.90;;;;;;5033931;28;20818;-86
2024/01/13 09:49:30;;;;;;;78.60;42.80;;;4.20;99.90;;;;;;5051770;28;20052;-86
2024/01/13 09:51:57;;;;;;;70.35;44.15;;;4.20;99.90;;;;;;5066687;28;20051;-85
2024/01/13 09:54:27;;;;;;;75.30;45.53;;;4.20;99.90;;;;;;5042915;28;20048;-86
2024/01/13 09:56:55;;;;;;;63.92;40.30;;;4.20;99.90;;;;;;5050265;28;20455;-85
2024/01/13 09:59:22;;;;;;;72.90;44.53;;;4.20;99.90;;;;;;5036288;28;20044;-86
2024/01/13 10:01:48;;;;;;;67.63;41.10;;;4.20;99.90;;;;;;5033220;28;20036;-86
2024/01/13 10:04:14;;;;;;;66.30;41.53;;;4.20;99.90;;;;;;5068642;28;20488;-86
2024/01/13 10:06:40;;;;;;;67.32;41.40;;;4.20;99.90;;;;;;5049791;28;20040;-86
2024/01/13 10:09:07;;;;;;;70.00;42.80;;;4.30;99.90;;;;;;5040823;28;20094;-85
2024/01/13 10:11:33;;;;;;;66.55;43.88;;;4.30;99.90;;;;;;5052184;28;20127;-86
2024/01/13 10:14:00;;;;;;;59.83;39.97;;;4.30;99.90;;;;;;5051165;28;20630;-86
2024/01/13 10:16:30;;;;;;;61.58;42.20;;;4.40;99.90;;;;;;5051371;28;20488;-85
2024/01/13 10:19:01;;;;;;;61.17;40.47;;;4.40;99.90;;;;;;5050009;28;20040;-85
2024/01/13 10:21:27;;;;;;;68.90;44.88;;;4.40;99.90;;;;;;5052818;28;20041;-86
2024/01/13 10:23:57;;;;;;;72.40;44.92;;;4.40;99.90;;;;;;5031609;28;20028;-86
2024/01/13 10:26:27;;;;;;;61.75;41.28;;;4.40;99.90;;;;;;5051791;28;20050;-86
2024/01/13 10:28:54;;;;;;;65.18;43.97;;;4.40;99.90;;;;;;5027020;28;20087;-87
2024/01/13 10:31:20;;;;;;;58.95;45.25;;;4.40;99.90;;;;;;5036123;28;20127;-87
2024/01/13 10:33:47;;;;;;;72.43;61.03;;;4.50;99.90;;;;;;5033238;28;20485;-86
2024/01/13 10:36:19;;;;;;;68.72;44.47;;;4.50;99.90;;;;;;5041498;28;20091;-86
2024/01/13 10:38:45;;;;;;;60.80;42.90;;;4.50;99.90;;;;;;5069523;28;20048;-87
2024/01/13 10:41:11;;;;;;;64.63;43.50;;;4.50;99.90;;;;;;5069267;28;20052;-86
2024/01/13 10:43:41;;;;;;;63.45;42.30;;;4.60;99.90;;;;;;5049222;28;20552;-85
2024/01/13 10:46:12;;;;;;;51.58;35.40;;;4.60;99.90;;;;;;5026034;28;20037;-86
2024/01/13 10:48:46;;;;;;;62.15;38.53;;;4.50;99.90;;;;;;5031221;28;20053;-86
2024/01/13 10:51:31;;;;;;;;;;;4.50;99.90;;;;;;5067578;28;20040;-86
2024/01/13 10:54:02;;;;;;;61.88;39.45;;;4.60;99.90;;;;;;5042661;28;19970;-85
2024/01/13 10:56:31;;;;;;;64.13;40.08;;;4.50;99.90;;;;;;5032727;28;20048;-85
2024/01/13 10:58:58;;;;;;;61.88;40.03;;;4.60;99.90;;;;;;5032277;28;20109;-85
2024/01/13 11:01:25;;;;;;;61.88;42.63;;;4.50;99.90;;;;;;5032108;28;20051;-84
2024/01/13 11:03:50;;;;;;;60.65;40.17;;;4.50;99.90;;;;;;5034751;28;20107;-86
2024/01/13 11:06:17;;;;;;;51.58;37.08;;;4.60;99.90;;;;;;5052448;28;20036;-87
2024/01/13 11:08:44;;;;;;;54.95;39.42;;;4.70;99.90;;;;;;5031540;28;20037;-86
2024/01/13 11:11:12;;;;;;;55.90;39.03;;;4.70;99.90;;;;;;5033681;28;20040;-86
2024/01/13 11:13:44;;;;;;;45.85;34.30;;;4.80;99.90;;;;;;5016925;28;20052;-86
2024/01/13 11:16:14;;;;;;;54.15;38.20;;;4.80;99.90;;;;;;5026359;28;20060;-84
2024/01/13 11:18:48;;;;;;;52.63;35.97;;;4.80;99.90;;;;;;5041819;28;20045;-85
2024/01/13 11:21:16;;;;;;;;;;;4.90;99.90;;;;;;5047379;28;20036;-85
2024/01/13 11:23:54;;;;;;;44.88;31.92;;;4.90;99.90;;;;;;5047915;28;19978;-85
2024/01/13 11:26:27;;;;;;;47.85;41.50;;;5.00;99.90;;;;;;5029603;28;20041;-85
2024/01/13 11:28:54;;;;;;;39.63;30.85;;;5.00;99.90;;;;;;5049260;28;20041;-85
2024/01/13 11:31:36;;;;;;;44.58;33.60;;;5.00;99.90;;;;;;5064430;28;20120;-85
2024/01/13 11:34:03;;;;;;;46.88;32.22;;;5.10;99.90;;;;;;5045640;28;20400;-86
2024/01/13 11:36:32;;;;;;;44.60;30.45;;;5.10;99.90;;;;;;5043465;28;20044;-84
2024/01/13 11:38:59;;;;;;;37.08;33.00;;;5.10;99.90;;;;;;5024916;28;20059;-84
2024/01/13 11:41:38;;;;;;;40.22;32.05;;;5.00;99.90;;;;;;5048085;28;20053;-85
2024/01/13 11:44:04;;;;;;;44.90;30.98;;;5.00;99.90;;;;;;5062429;28;20086;-85
2024/01/13 11:46:33;;;;;;;41.05;30.05;;;5.00;99.90;;;;;;5032108;28;20075;-84
2024/01/13 11:49:03;;;;;;;39.97;30.95;;;5.10;99.90;;;;;;5045923;28;20047;-85
2024/01/13 11:51:57;;;;;;;37.92;29.67;;;5.10;99.90;;;;;;5046909;28;20550;-84
2024/01/13 11:54:24;;;;;;;40.53;29.00;;;5.10;99.90;;;;;;5040423;28;20045;-85
2024/01/13 11:56:50;;;;;;;32.05;27.25;;;5.10;99.90;;;;;;5059564;28;20286;-86
2024/01/13 11:59:16;;;;;;;29.48;26.27;;;5.10;99.90;;;;;;5027856;28;20048;-85
2024/01/13 12:01:43;;;;;;;41.90;29.90;;;5.10;99.90;;;;;;5046840;28;20812;-86
2024/01/13 12:04:09;;;;;;;32.50;27.88;;;5.10;99.90;;;;;;5045134;28;20511;-85
2024/01/13 12:06:35;;;;;;;32.75;26.38;;;5.10;99.90;;;;;;5065436;28;20112;-85
2024/01/13 12:09:00;;;;;;;37.45;28.92;;;5.10;99.90;;;;;;5043827;28;20119;-86
2024/01/13 12:11:27;;;;;;;30.45;26.58;;;5.20;99.90;;;;;;5042229;28;20095;-86
2024/01/13 12:13:53;;;;;;;32.85;27.52;;;5.20;99.90;;;;;;5041215;28;20153;-85
2024/01/13 12:16:19;;;;;;;33.10;27.73;;;5.20;99.90;;;;;;5047378;28;20067;-86
2024/01/13 12:18:48;;;;;;;34.95;26.83;;;5.20;99.90;;;;;;5042853;28;20064;-85
2024/01/13 12:21:14;;;;;;;40.88;31.80;;;5.20;99.90;;;;;;5048642;28;20043;-86
2024/01/13 12:23:41;;;;;;;33.97;25.33;;;5.20;99.90;;;;;;5031235;28;20049;-85
2024/01/13 12:26:07;;;;;;;29.42;24.02;;;5.20;99.90;;;;;;5030213;28;20064;-86
2024/01/13 12:28:33;;;;;;;37.67;34.17;;;5.20;99.90;;;;;;5043744;28;20071;-85
2024/01/13 12:31:03;;;;;;;31.67;26.20;;;5.20;99.90;;;;;;5062037;28;20048;-86
2024/01/13 12:33:28;;;;;;;29.20;25.00;;;5.20;99.90;;;;;;5042159;28;20043;-87